Rocky Mount Wilson Regional Airport
KRWI : now visible

Airfield :











YOU CAN JOIN US ON...

 
LOGIN :

Register | Disclaimer

   EN    FR    IT 

 









Legend :    VFR   Marginal VFR   IFR   Intensive IFR   Very Intensive IFR
Visi :
Ceiling :
>= 8 km
>= 3000ft
5 to 8 km
1000 to 3000 ft
1500m to 5 km
500 to 1000 ft
800 to 1500m
200 to 500 ft
< 800m
< 200 ft
Symbols :   Thunderstorms  Fog  Heavy snow  Heavy precipitations  Wind > 20 kt






- Airport Elevation : 159 ft
- IATA code : RWI


KRWI - Rocky Mount Wilson Regional

CURRENT METAR :
  • 071853Z AUTO 05008KT 10SM CLR 11/M01 A3034 RMK AO2 SLP275 T01061011

EXPIRED METARs :
  • 071753Z AUTO 02007KT 10SM OVC042 10/M02 A3035 RMK AO2 SLP279 T01001017 10106 20039 58003
  • 071653Z AUTO 03011KT 10SM OVC041 10/M01 A3037 RMK AO2 SLP283 T01001006

TAF KRWI
Valid from the 07 at 18:00 until the 08 at 18:00 UTC


071723Z 0718/0818 02010KT P6SM BKN040
FM072300 03003KT P6SM SKC



MET'MAP, your aeronautical weather chart ! - Copyright ORBIFLY December 2007 - Disclaimer

ORBIFLY MET'MAP TEAM :

Programming & Development : Alexandra Zaïnal
Concept & original design : Baudouin d'Aumeries
Assistance for programming : Marc-Olivier Méhu
Technical & hardware support : Manuel Goepfert

Contact : metmap@orbifly.com




SOURCES & CREDITS :

   NOAA       Earth
Advisory